Terminal Aerodrome Forecast
Issued by NWS Cleveland, OH

Home | Current Version | Previous Version | Text Only | Print | Product List | Glossary On
Versions: 1 2 3 4 5 6 7 8 9 10 11 12 13 14 15
887
FTUS41 KCLE 241727
TAFTOL
TAF
KTOL 241727Z 2418/2518 09008KT P6SM VCSH OVC010
     FM242300 07007KT 4SM -SHRA OVC007
     FM250300 05005KT P6SM OVC007
     FM250400 02004KT 3SM BR OVC003
     FM251500 35012KT P6SM BKN035=

USA.gov is the U.S. government's official web portal to all federal, state and local government web resources and services.